createdAt,value
2018-07-26T00:00:58.299Z,22.70
2018-07-26T00:02:07.088Z,22.60
2018-07-26T00:03:20.840Z,22.70
2018-07-26T00:04:40.011Z,22.80
2018-07-26T00:05:43.651Z,22.60
2018-07-26T00:06:48.596Z,22.60
2018-07-26T00:07:55.319Z,22.60
2018-07-26T00:08:58.819Z,22.60
2018-07-26T00:10:02.377Z,22.50
2018-07-26T00:11:05.912Z,22.50
2018-07-26T00:12:09.459Z,22.50
2018-07-26T00:13:13.669Z,22.40
2018-07-26T00:14:17.250Z,22.40
2018-07-26T00:15:20.779Z,22.50
2018-07-26T00:16:24.232Z,22.50
2018-07-26T00:17:27.786Z,22.50
2018-07-26T00:18:31.422Z,22.50
2018-07-26T00:19:34.917Z,22.50
2018-07-26T00:20:38.422Z,22.50
2018-07-26T00:21:41.974Z,22.50
2018-07-26T00:22:45.488Z,22.50
2018-07-26T00:23:49.011Z,22.50
2018-07-26T00:24:52.465Z,22.50
2018-07-26T00:25:55.958Z,22.40
2018-07-26T00:26:59.441Z,22.50
2018-07-26T00:28:02.946Z,22.50
2018-07-26T00:29:06.481Z,22.50
2018-07-26T00:30:11.890Z,22.50
2018-07-26T00:31:15.355Z,22.50
2018-07-26T00:32:18.816Z,22.40
2018-07-26T00:33:22.334Z,22.40
2018-07-26T00:34:25.862Z,22.40
2018-07-26T00:35:29.358Z,22.40
2018-07-26T00:36:33.177Z,22.40
2018-07-26T00:37:36.770Z,22.40
2018-07-26T00:38:40.816Z,22.40
2018-07-26T00:39:47.198Z,22.40
2018-07-26T00:40:50.688Z,22.50
2018-07-26T00:41:54.194Z,22.50
2018-07-26T00:42:57.712Z,22.40
2018-07-26T00:44:01.273Z,22.40
2018-07-26T00:45:05.091Z,22.40
2018-07-26T00:46:08.570Z,22.30
2018-07-26T00:47:13.333Z,22.40
2018-07-26T00:48:16.910Z,22.40
2018-07-26T00:49:20.356Z,22.40
2018-07-26T00:50:23.868Z,22.40
2018-07-26T00:51:27.423Z,22.30
2018-07-26T00:52:30.939Z,22.30
2018-07-26T00:53:34.425Z,22.30
2018-07-26T00:54:37.907Z,22.30
2018-07-26T00:55:41.378Z,22.20
2018-07-26T00:56:44.846Z,22.20
2018-07-26T00:57:48.411Z,22.20
2018-07-26T00:58:51.917Z,22.20
2018-07-26T00:59:59.590Z,22.30
2018-07-26T01:01:06.340Z,22.20
2018-07-26T01:02:10.424Z,22.10
2018-07-26T01:03:14.271Z,22.10
2018-07-26T01:04:17.921Z,22.20
2018-07-26T01:05:21.433Z,22.10
2018-07-26T01:06:24.972Z,22.10
2018-07-26T01:07:28.445Z,22.10
2018-07-26T01:08:31.963Z,22.10
2018-07-26T01:09:35.477Z,22.10
2018-07-26T01:10:38.993Z,22.10
2018-07-26T01:11:42.446Z,22.10
2018-07-26T01:12:46.028Z,22.10
2018-07-26T01:13:49.497Z,22.10
2018-07-26T01:14:52.947Z,22.10
2018-07-26T01:15:56.448Z,22.00
2018-07-26T01:16:59.906Z,22.00
2018-07-26T01:18:03.522Z,21.90
2018-07-26T01:19:07.004Z,21.90
2018-07-26T01:20:11.078Z,21.90
2018-07-26T01:21:14.913Z,21.90
2018-07-26T01:22:18.669Z,21.90
2018-07-26T01:23:22.141Z,22.00
2018-07-26T01:24:25.690Z,21.90
2018-07-26T01:25:29.156Z,21.90
2018-07-26T01:26:32.607Z,21.90
2018-07-26T01:27:36.122Z,21.90
2018-07-26T01:28:39.711Z,21.80
2018-07-26T01:29:43.310Z,21.80
2018-07-26T01:30:46.828Z,21.80
2018-07-26T01:31:53.780Z,21.80
2018-07-26T01:32:57.195Z,21.80
2018-07-26T01:34:00.703Z,21.80
2018-07-26T01:35:04.241Z,21.80
2018-07-26T01:36:07.743Z,21.80
2018-07-26T01:37:12.475Z,21.70
2018-07-26T01:38:15.917Z,21.70
2018-07-26T01:39:19.631Z,21.70
2018-07-26T01:40:23.071Z,21.70
2018-07-26T01:41:26.550Z,21.70
2018-07-26T01:42:34.621Z,21.70
2018-07-26T01:43:50.285Z,21.70
2018-07-26T01:44:53.879Z,21.70
2018-07-26T01:45:57.399Z,21.60
2018-07-26T01:47:00.844Z,21.70
2018-07-26T01:48:04.873Z,21.70
2018-07-26T01:49:08.303Z,21.70
2018-07-26T01:50:12.977Z,21.60
2018-07-26T01:51:16.547Z,21.60
2018-07-26T01:52:19.986Z,21.60
2018-07-26T01:53:23.505Z,21.60
2018-07-26T01:54:26.960Z,21.50
2018-07-26T01:55:30.420Z,21.50
2018-07-26T01:56:33.941Z,21.60
2018-07-26T01:57:37.397Z,21.60
2018-07-26T01:58:40.907Z,21.50
2018-07-26T01:59:44.384Z,21.50
2018-07-26T02:00:47.904Z,21.50
2018-07-26T02:01:51.474Z,21.50
2018-07-26T02:02:54.967Z,21.40
2018-07-26T02:03:58.469Z,21.40
2018-07-26T02:05:01.911Z,21.40
2018-07-26T02:06:05.413Z,21.40
2018-07-26T02:07:09.657Z,21.40
2018-07-26T02:08:13.328Z,21.40
2018-07-26T02:09:16.812Z,21.40
2018-07-26T02:10:20.257Z,21.40
2018-07-26T02:11:23.829Z,21.40
2018-07-26T02:12:27.399Z,21.30
2018-07-26T02:13:32.366Z,21.20
2018-07-26T02:14:35.873Z,21.20
2018-07-26T02:15:39.328Z,21.20
2018-07-26T02:16:42.801Z,21.20
2018-07-26T02:17:46.263Z,21.20
2018-07-26T02:18:49.884Z,21.20
2018-07-26T02:19:53.357Z,21.20
2018-07-26T02:20:56.822Z,21.30
2018-07-26T02:22:00.398Z,21.20
2018-07-26T02:23:03.884Z,21.20
2018-07-26T02:25:11.102Z,21.20
2018-07-26T02:26:15.503Z,21.10
2018-07-26T02:27:19.828Z,21.20
2018-07-26T02:28:23.439Z,21.20
2018-07-26T02:29:26.875Z,21.20
2018-07-26T02:30:30.383Z,21.20
2018-07-26T02:31:33.915Z,21.30
2018-07-26T02:32:37.434Z,21.30
2018-07-26T02:34:44.052Z,21.30
2018-07-26T02:35:47.509Z,21.40
2018-07-26T02:36:51.074Z,21.40
2018-07-26T02:37:54.709Z,21.40
2018-07-26T02:38:58.202Z,21.40
2018-07-26T02:40:01.734Z,21.40
2018-07-26T02:41:05.192Z,21.30
2018-07-26T02:42:08.835Z,21.40
2018-07-26T02:43:13.474Z,21.40
2018-07-26T02:44:17.103Z,21.40
2018-07-26T02:45:21.384Z,21.40
2018-07-26T02:46:24.868Z,21.40
2018-07-26T02:47:28.288Z,21.30
2018-07-26T02:48:31.816Z,21.30
2018-07-26T02:49:35.321Z,21.30
2018-07-26T02:50:38.784Z,21.30
2018-07-26T02:51:42.247Z,21.20
2018-07-26T02:52:45.735Z,21.20
2018-07-26T02:53:49.206Z,21.30
2018-07-26T02:54:52.676Z,21.30
2018-07-26T02:55:56.203Z,21.30
2018-07-26T02:56:59.699Z,21.30
2018-07-26T02:58:03.204Z,21.30
2018-07-26T02:59:06.699Z,21.30
2018-07-26T03:00:11.470Z,21.30
2018-07-26T03:01:15.846Z,21.30
2018-07-26T03:02:21.079Z,21.30
2018-07-26T03:03:24.622Z,21.30
2018-07-26T03:04:28.116Z,21.40
2018-07-26T03:05:31.568Z,21.30
2018-07-26T03:06:35.032Z,21.30
2018-07-26T03:07:38.566Z,21.20
2018-07-26T03:08:41.986Z,21.30
2018-07-26T03:09:45.615Z,21.20
2018-07-26T03:10:49.092Z,21.20
2018-07-26T03:11:52.683Z,21.20
2018-07-26T03:12:56.193Z,21.30
2018-07-26T03:13:59.735Z,21.30
2018-07-26T03:15:03.255Z,21.40
2018-07-26T03:16:06.760Z,21.40
2018-07-26T03:17:11.413Z,21.30
2018-07-26T03:18:18.871Z,21.30
2018-07-26T03:19:22.445Z,21.30
2018-07-26T03:20:25.895Z,21.30
2018-07-26T03:21:29.331Z,21.40
2018-07-26T03:22:32.888Z,21.30
2018-07-26T03:23:36.343Z,21.30
2018-07-26T03:24:39.778Z,21.40
2018-07-26T03:25:43.675Z,21.40
2018-07-26T03:26:47.161Z,21.40
2018-07-26T03:27:50.744Z,21.40
2018-07-26T03:28:54.253Z,21.40
2018-07-26T03:31:00.868Z,21.40
2018-07-26T03:32:04.461Z,21.40
2018-07-26T03:33:08.597Z,21.50
2018-07-26T03:34:15.364Z,21.50
2018-07-26T03:36:39.077Z,21.50
2018-07-26T03:37:43.635Z,21.50
2018-07-26T03:38:50.204Z,21.50
2018-07-26T03:39:53.647Z,21.40
2018-07-26T03:40:57.162Z,21.50
2018-07-26T03:42:00.721Z,21.50
2018-07-26T03:43:04.215Z,21.50
2018-07-26T03:44:07.690Z,21.50
2018-07-26T03:45:15.850Z,21.50
2018-07-26T03:46:19.667Z,21.50
2018-07-26T03:47:23.177Z,21.60
2018-07-26T03:48:26.646Z,21.50
2018-07-26T03:49:30.178Z,21.50
2018-07-26T03:50:34.239Z,21.60
2018-07-26T03:51:37.740Z,21.50
2018-07-26T03:52:41.235Z,21.50
2018-07-26T03:53:44.761Z,21.50
2018-07-26T03:54:48.311Z,21.50
2018-07-26T03:55:51.838Z,21.50
2018-07-26T03:56:55.489Z,21.60
2018-07-26T03:57:58.927Z,21.60
2018-07-26T03:59:02.565Z,21.60
2018-07-26T04:00:06.532Z,21.60
2018-07-26T04:01:10.605Z,21.60
2018-07-26T04:02:17.936Z,21.60
2018-07-26T04:03:21.442Z,21.60
2018-07-26T04:04:24.881Z,21.60
2018-07-26T04:06:31.465Z,21.60
2018-07-26T04:07:35.030Z,21.60
2018-07-26T04:08:38.695Z,21.60
2018-07-26T04:09:42.287Z,21.50
2018-07-26T04:10:45.709Z,21.60
2018-07-26T04:11:49.172Z,21.60
2018-07-26T04:12:52.707Z,21.70
2018-07-26T04:13:56.197Z,21.60
2018-07-26T04:14:59.618Z,21.60
2018-07-26T04:16:03.145Z,21.70
2018-07-26T04:17:06.632Z,21.70
2018-07-26T04:18:11.016Z,21.70
2018-07-26T04:19:19.059Z,21.70
2018-07-26T04:20:22.592Z,21.70
2018-07-26T04:21:26.106Z,21.80
2018-07-26T04:22:29.791Z,21.90
2018-07-26T04:23:33.303Z,21.90
2018-07-26T04:24:36.868Z,21.90
2018-07-26T04:25:40.374Z,22.00
2018-07-26T04:26:43.833Z,22.10
2018-07-26T04:27:47.300Z,22.20
2018-07-26T04:28:50.805Z,22.30
2018-07-26T04:29:54.293Z,22.50
2018-07-26T04:30:57.920Z,22.70
2018-07-26T04:32:01.473Z,23.00
2018-07-26T04:33:05.013Z,23.30
2018-07-26T04:34:08.551Z,23.60
2018-07-26T04:35:13.713Z,24.00
2018-07-26T04:36:20.184Z,24.30
2018-07-26T04:37:23.641Z,24.60
2018-07-26T04:38:28.079Z,24.90
2018-07-26T04:39:31.573Z,25.20
2018-07-26T04:40:35.009Z,25.40
2018-07-26T04:41:38.862Z,25.70
2018-07-26T04:42:42.408Z,26.00
2018-07-26T04:43:45.959Z,26.30
2018-07-26T04:44:49.437Z,26.60
2018-07-26T04:45:53.171Z,26.80
2018-07-26T04:46:56.697Z,26.90
2018-07-26T04:48:00.151Z,27.20
2018-07-26T04:49:03.733Z,27.30
2018-07-26T04:50:07.351Z,27.30
2018-07-26T04:51:12.619Z,27.20
2018-07-26T04:52:26.352Z,27.20
2018-07-26T04:53:30.021Z,27.40
2018-07-26T04:54:33.807Z,27.50
2018-07-26T04:55:37.243Z,27.70
2018-07-26T04:56:40.783Z,27.90
2018-07-26T04:57:44.256Z,27.90
2018-07-26T04:58:47.739Z,27.80
2018-07-26T04:59:51.257Z,27.60
2018-07-26T05:01:58.622Z,27.30
2018-07-26T05:03:02.247Z,27.10
2018-07-26T05:04:05.780Z,26.90
2018-07-26T05:05:09.708Z,26.70
2018-07-26T05:06:16.733Z,26.60
2018-07-26T05:07:20.630Z,26.40
2018-07-26T05:08:24.568Z,26.30
2018-07-26T05:09:28.116Z,26.20
2018-07-26T05:10:31.601Z,26.00
2018-07-26T05:11:35.089Z,26.00
2018-07-26T05:12:38.588Z,25.90
2018-07-26T05:13:42.166Z,25.90
2018-07-26T05:14:45.649Z,25.90
2018-07-26T05:15:49.252Z,26.10
2018-07-26T05:16:53.126Z,26.40
2018-07-26T05:17:56.818Z,26.70
2018-07-26T05:19:00.284Z,27.10
2018-07-26T05:20:04.153Z,27.50
2018-07-26T05:21:07.745Z,27.90
2018-07-26T05:22:14.161Z,28.20
2018-07-26T05:23:19.266Z,28.30
2018-07-26T05:25:26.192Z,28.30
2018-07-26T05:26:29.684Z,28.10
2018-07-26T05:27:33.201Z,27.90
2018-07-26T05:28:36.694Z,27.70
2018-07-26T05:29:40.271Z,27.60
2018-07-26T05:30:44.441Z,27.40
2018-07-26T05:31:47.953Z,27.30
2018-07-26T05:32:51.590Z,27.10
2018-07-26T05:33:55.173Z,27.00
2018-07-26T05:34:58.834Z,26.90
2018-07-26T05:36:02.421Z,26.80
2018-07-26T05:37:05.906Z,26.70
2018-07-26T05:38:09.416Z,26.60
2018-07-26T05:39:13.030Z,26.50
2018-07-26T05:40:16.585Z,26.60
2018-07-26T05:41:20.128Z,26.60
2018-07-26T05:42:23.695Z,26.60
2018-07-26T05:43:27.294Z,26.60
2018-07-26T05:44:30.751Z,26.50
2018-07-26T05:45:34.214Z,26.50
2018-07-26T05:46:38.721Z,26.40
2018-07-26T05:47:42.288Z,26.40
2018-07-26T05:48:46.435Z,26.30
2018-07-26T05:49:50.023Z,26.30
2018-07-26T05:50:53.666Z,26.10
2018-07-26T05:51:57.177Z,26.00
2018-07-26T05:53:00.666Z,25.80
2018-07-26T05:54:04.241Z,25.70
2018-07-26T05:55:10.206Z,25.60
2018-07-26T05:56:14.750Z,25.60
2018-07-26T05:57:18.887Z,25.60
2018-07-26T05:58:22.601Z,25.50
2018-07-26T05:59:26.186Z,25.60
2018-07-26T06:00:29.921Z,25.60
2018-07-26T06:01:34.420Z,25.60
2018-07-26T06:02:37.955Z,25.60
2018-07-26T06:03:41.509Z,25.60
2018-07-26T06:04:45.107Z,25.50
2018-07-26T06:05:48.677Z,25.60
2018-07-26T06:06:52.202Z,25.60
2018-07-26T06:07:55.739Z,25.60
2018-07-26T06:08:59.242Z,25.60
2018-07-26T06:10:02.776Z,25.70
2018-07-26T06:11:06.562Z,25.60
2018-07-26T06:12:13.513Z,25.80
2018-07-26T06:13:19.388Z,25.80
2018-07-26T06:14:22.993Z,25.90
2018-07-26T06:15:26.488Z,25.90
2018-07-26T06:16:29.959Z,25.90
2018-07-26T06:17:34.053Z,25.90
2018-07-26T06:18:37.547Z,26.00
2018-07-26T06:19:41.145Z,26.10
2018-07-26T06:20:44.728Z,26.20
2018-07-26T06:21:48.389Z,26.20
2018-07-26T06:22:51.933Z,26.40
2018-07-26T06:23:55.462Z,26.50
2018-07-26T06:24:58.928Z,26.50
2018-07-26T06:26:02.557Z,26.60
2018-07-26T06:27:06.338Z,26.80
2018-07-26T06:28:13.367Z,26.90
2018-07-26T06:29:18.411Z,27.10
2018-07-26T06:30:21.944Z,27.40
2018-07-26T06:31:25.485Z,27.50
2018-07-26T06:32:29.269Z,27.60
2018-07-26T06:33:32.903Z,27.80
2018-07-26T06:34:36.418Z,27.90
2018-07-26T06:35:39.882Z,28.00
2018-07-26T06:36:44.383Z,28.00
2018-07-26T06:37:48.024Z,28.00
2018-07-26T06:38:51.481Z,28.10
2018-07-26T06:39:55.079Z,28.20
2018-07-26T06:40:58.747Z,28.30
2018-07-26T06:42:02.263Z,28.40
2018-07-26T06:43:06.110Z,28.50
2018-07-26T06:44:10.155Z,28.60
2018-07-26T06:45:16.733Z,28.60
2018-07-26T06:46:21.586Z,28.70
2018-07-26T06:47:25.101Z,28.60
2018-07-26T06:49:32.343Z,28.80
2018-07-26T06:50:36.114Z,29.30
2018-07-26T06:51:39.654Z,30.10
2018-07-26T06:52:43.781Z,31.00
2018-07-26T06:53:48.245Z,31.70
2018-07-26T06:54:53.032Z,32.10
2018-07-26T06:55:56.608Z,32.20
2018-07-26T06:57:00.070Z,32.20
2018-07-26T06:58:04.159Z,32.10
2018-07-26T06:59:07.687Z,32.10
2018-07-26T07:00:12.987Z,32.30
2018-07-26T07:01:18.423Z,32.20
2018-07-26T07:02:22.115Z,32.20
2018-07-26T07:03:25.704Z,32.20
2018-07-26T07:04:29.248Z,32.10
2018-07-26T07:05:32.756Z,32.10
2018-07-26T07:06:36.315Z,32.20
2018-07-26T07:07:40.208Z,32.40
2018-07-26T07:08:43.816Z,33.00
2018-07-26T07:09:47.497Z,33.60
2018-07-26T07:10:51.021Z,34.00
2018-07-26T07:11:54.744Z,34.40
2018-07-26T07:12:58.230Z,35.00
2018-07-26T07:14:01.859Z,35.50
2018-07-26T07:15:05.684Z,35.90
2018-07-26T07:16:09.220Z,36.20
2018-07-26T07:17:12.958Z,36.50
2018-07-26T07:18:16.463Z,36.60
2018-07-26T07:19:21.108Z,36.70
2018-07-26T07:20:24.781Z,36.80
2018-07-26T07:21:28.572Z,37.00
2018-07-26T07:22:32.279Z,37.20
2018-07-26T07:23:36.076Z,37.50
2018-07-26T07:24:39.513Z,37.90
2018-07-26T07:25:42.948Z,38.20
2018-07-26T07:26:46.415Z,38.40
2018-07-26T07:27:50.051Z,38.80
2018-07-26T07:28:53.726Z,38.80
2018-07-26T07:29:57.226Z,39.00
2018-07-26T07:31:01.002Z,39.20
2018-07-26T07:32:04.632Z,39.50
2018-07-26T07:33:08.254Z,39.80
2018-07-26T07:34:11.882Z,39.90
2018-07-26T07:35:15.509Z,39.90
2018-07-26T07:36:19.080Z,40.00
2018-07-26T07:37:22.645Z,40.20
2018-07-26T07:38:26.168Z,40.40
2018-07-26T07:39:29.813Z,40.40
2018-07-26T07:40:33.296Z,40.50
2018-07-26T07:41:37.114Z,40.80
2018-07-26T07:42:40.646Z,41.00
2018-07-26T07:43:44.220Z,41.20
2018-07-26T07:44:47.721Z,41.40
2018-07-26T07:45:51.854Z,41.50
2018-07-26T07:46:55.855Z,41.80
2018-07-26T07:47:59.458Z,41.60
2018-07-26T07:49:03.012Z,41.60
2018-07-26T07:50:06.907Z,41.30
2018-07-26T07:51:10.537Z,41.20
2018-07-26T07:52:14.184Z,41.30
2018-07-26T07:53:17.834Z,41.50
2018-07-26T07:54:21.393Z,41.50
2018-07-26T07:55:25.157Z,41.80
2018-07-26T07:56:28.756Z,41.90
2018-07-26T07:57:32.262Z,41.90
2018-07-26T07:58:35.718Z,41.90
2018-07-26T07:59:39.280Z,42.10
2018-07-26T08:00:42.804Z,42.20
2018-07-26T08:01:46.915Z,42.20
2018-07-26T08:02:50.803Z,42.20
2018-07-26T08:03:54.325Z,42.30
2018-07-26T08:04:57.881Z,42.20
2018-07-26T08:06:01.448Z,42.20
2018-07-26T08:07:05.782Z,42.30
2018-07-26T08:08:09.344Z,42.40
2018-07-26T08:09:13.272Z,42.40
2018-07-26T08:10:16.893Z,42.50
2018-07-26T08:11:21.198Z,42.50
2018-07-26T08:12:25.371Z,42.80
2018-07-26T08:13:29.228Z,42.90
2018-07-26T08:14:33.232Z,42.90
2018-07-26T08:15:37.677Z,42.80
2018-07-26T08:16:41.187Z,42.60
2018-07-26T08:17:44.683Z,42.40
2018-07-26T08:18:49.470Z,42.50
2018-07-26T08:19:53.113Z,42.50
2018-07-26T08:20:56.628Z,42.50
2018-07-26T08:22:00.198Z,42.60
2018-07-26T08:23:04.436Z,42.80
2018-07-26T08:24:07.957Z,42.90
2018-07-26T08:25:11.538Z,43.20
2018-07-26T08:26:15.227Z,43.30
2018-07-26T08:27:18.789Z,43.50
2018-07-26T08:28:23.453Z,43.40
2018-07-26T08:29:27.146Z,43.20
2018-07-26T08:30:31.130Z,43.20
2018-07-26T08:31:35.097Z,43.10
2018-07-26T08:32:38.712Z,43.20
2018-07-26T08:33:42.429Z,43.20
2018-07-26T08:34:46.546Z,43.10
2018-07-26T08:35:50.079Z,43.00
2018-07-26T08:36:53.679Z,42.90
2018-07-26T08:37:58.395Z,42.70
2018-07-26T08:39:02.290Z,42.60
2018-07-26T08:40:06.325Z,42.70
2018-07-26T08:41:09.987Z,42.80
2018-07-26T08:42:13.625Z,42.90
2018-07-26T08:43:17.180Z,43.10
2018-07-26T08:44:20.821Z,43.20
2018-07-26T08:45:24.290Z,43.30
2018-07-26T08:46:27.905Z,43.40
2018-07-26T08:48:34.741Z,43.40
2018-07-26T08:49:38.314Z,43.20
2018-07-26T08:50:42.136Z,43.00
2018-07-26T08:51:45.647Z,42.80
2018-07-26T08:52:51.379Z,42.40
2018-07-26T08:53:55.441Z,42.10
2018-07-26T08:54:58.954Z,41.80
2018-07-26T08:56:02.613Z,41.50
2018-07-26T08:57:06.618Z,41.40
2018-07-26T08:58:10.354Z,41.40
2018-07-26T08:59:13.935Z,41.30
2018-07-26T09:00:18.543Z,41.10
2018-07-26T09:01:22.197Z,41.00
2018-07-26T09:02:25.715Z,40.90
2018-07-26T09:03:29.456Z,41.00
2018-07-26T09:04:33.065Z,41.00
2018-07-26T09:05:36.758Z,41.20
2018-07-26T09:06:40.356Z,41.40
2018-07-26T09:07:44.225Z,41.50
2018-07-26T09:08:48.159Z,41.50
2018-07-26T09:09:51.682Z,41.60
2018-07-26T09:10:55.507Z,41.60
2018-07-26T09:11:59.092Z,41.50
2018-07-26T09:14:06.177Z,41.30
2018-07-26T09:15:09.806Z,41.20
2018-07-26T09:16:15.569Z,41.20
2018-07-26T09:17:19.230Z,41.20
2018-07-26T09:18:22.734Z,41.50
2018-07-26T09:19:26.347Z,41.70
2018-07-26T09:20:30.996Z,41.80
2018-07-26T09:21:34.542Z,41.80
2018-07-26T09:22:38.270Z,41.80
2018-07-26T09:23:41.829Z,41.60
2018-07-26T09:24:45.408Z,41.40
2018-07-26T09:25:48.956Z,41.00
2018-07-26T09:26:52.463Z,40.90
2018-07-26T09:27:55.990Z,40.60
2018-07-26T09:28:59.479Z,40.40
2018-07-26T09:30:03.068Z,40.30
2018-07-26T09:31:06.592Z,40.30
2018-07-26T09:32:10.407Z,40.30
2018-07-26T09:33:14.150Z,40.20
2018-07-26T09:34:17.689Z,39.90
2018-07-26T09:35:21.304Z,39.80
2018-07-26T09:36:24.742Z,39.80
2018-07-26T09:38:31.445Z,39.60
2018-07-26T09:39:35.006Z,39.80
2018-07-26T09:41:42.010Z,39.70
2018-07-26T09:42:45.548Z,39.70
2018-07-26T09:43:49.171Z,39.80
2018-07-26T09:44:52.698Z,39.70
2018-07-26T09:45:56.323Z,39.60
2018-07-26T09:46:59.817Z,39.40
2018-07-26T09:48:03.704Z,39.30
2018-07-26T09:49:07.384Z,39.00
2018-07-26T09:50:10.884Z,38.90
2018-07-26T09:51:14.576Z,38.80
2018-07-26T09:52:18.324Z,38.60
2018-07-26T09:53:21.789Z,38.50
2018-07-26T09:54:25.424Z,38.50
2018-07-26T09:55:29.510Z,38.50
2018-07-26T09:56:33.442Z,38.50
2018-07-26T09:57:37.397Z,38.40
2018-07-26T09:58:40.852Z,38.20
2018-07-26T09:59:44.543Z,38.00
2018-07-26T10:00:53.342Z,38.00
2018-07-26T10:01:56.910Z,38.00
2018-07-26T10:03:00.467Z,38.10
2018-07-26T10:04:04.323Z,38.20
2018-07-26T10:05:07.934Z,38.10
2018-07-26T10:06:11.836Z,38.00
2018-07-26T10:07:15.437Z,37.80
2018-07-26T10:08:19.851Z,37.70
2018-07-26T10:09:23.322Z,37.60
2018-07-26T10:10:26.876Z,37.50
2018-07-26T10:11:30.553Z,37.50
2018-07-26T10:12:34.077Z,37.40
2018-07-26T10:13:37.607Z,37.20
2018-07-26T10:14:41.126Z,37.10
2018-07-26T10:15:45.060Z,36.90
2018-07-26T10:16:48.731Z,36.90
2018-07-26T10:17:52.373Z,36.80
2018-07-26T10:18:55.970Z,36.90
2018-07-26T10:20:00.227Z,36.90
2018-07-26T10:21:04.126Z,36.80
2018-07-26T10:22:07.843Z,36.60
2018-07-26T10:23:11.598Z,36.20
2018-07-26T10:24:15.339Z,36.00
2018-07-26T10:25:18.888Z,35.90
2018-07-26T10:26:23.460Z,35.70
2018-07-26T10:27:26.975Z,35.60
2018-07-26T10:28:30.533Z,35.50
2018-07-26T10:29:34.170Z,35.40
2018-07-26T10:30:37.693Z,35.30
2018-07-26T10:31:41.322Z,35.10
2018-07-26T10:32:44.934Z,35.20
2018-07-26T10:33:48.583Z,35.10
2018-07-26T10:34:52.322Z,35.20
2018-07-26T10:35:55.868Z,35.10
2018-07-26T10:36:59.924Z,35.10
2018-07-26T10:38:03.488Z,35.00
2018-07-26T10:39:08.953Z,34.90
2018-07-26T10:40:12.638Z,34.90
2018-07-26T10:41:16.145Z,34.90
2018-07-26T10:42:19.715Z,34.80
2018-07-26T10:43:23.196Z,34.80
2018-07-26T10:44:26.716Z,34.80
2018-07-26T10:45:30.407Z,34.70
2018-07-26T10:46:33.868Z,34.60
2018-07-26T10:47:37.514Z,34.70
2018-07-26T10:48:41.115Z,34.70
2018-07-26T10:49:44.621Z,34.70
2018-07-26T10:50:48.112Z,34.80
2018-07-26T10:51:51.663Z,34.90
2018-07-26T10:52:55.354Z,34.80
2018-07-26T10:53:59.008Z,34.80
2018-07-26T10:55:02.488Z,34.90
2018-07-26T10:56:06.342Z,35.00
2018-07-26T10:57:10.049Z,35.00
2018-07-26T10:58:13.721Z,35.00
2018-07-26T10:59:17.303Z,35.10
2018-07-26T11:00:21.317Z,35.10
2018-07-26T11:01:25.292Z,35.10
2018-07-26T11:03:32.168Z,35.10
2018-07-26T11:04:35.684Z,35.00
2018-07-26T11:05:39.295Z,35.00
2018-07-26T11:06:43.048Z,34.90
2018-07-26T11:07:46.640Z,34.90
2018-07-26T11:08:50.183Z,34.80
2018-07-26T11:09:53.899Z,34.70
2018-07-26T11:10:57.389Z,34.70
2018-07-26T11:12:00.954Z,34.50
2018-07-26T11:13:04.606Z,34.50
2018-07-26T11:14:08.650Z,34.50
2018-07-26T11:15:31.499Z,34.50
2018-07-26T11:16:35.143Z,34.50
2018-07-26T11:17:38.701Z,34.40
2018-07-26T11:18:42.252Z,34.30
2018-07-26T11:19:45.895Z,34.30
2018-07-26T11:20:49.536Z,34.40
2018-07-26T11:21:53.226Z,34.40
2018-07-26T11:22:56.835Z,34.50
2018-07-26T11:24:00.384Z,34.50
2018-07-26T11:25:03.997Z,34.50
2018-07-26T11:26:07.610Z,34.40
2018-07-26T11:27:11.348Z,34.40
2018-07-26T11:28:14.897Z,34.40
2018-07-26T11:29:18.482Z,34.40
2018-07-26T11:30:22.469Z,34.50
2018-07-26T11:31:26.668Z,34.50
2018-07-26T11:32:30.754Z,34.50
2018-07-26T11:33:35.101Z,34.50
2018-07-26T11:34:39.692Z,34.50
2018-07-26T11:35:43.268Z,34.60
2018-07-26T11:36:46.878Z,34.60
2018-07-26T11:37:50.550Z,34.60
2018-07-26T11:38:54.118Z,34.60
2018-07-26T11:39:57.809Z,34.60
2018-07-26T11:41:01.296Z,34.60
2018-07-26T11:42:04.864Z,34.50
2018-07-26T11:43:08.316Z,34.60
2018-07-26T11:44:12.068Z,34.60
2018-07-26T11:45:15.693Z,34.70
2018-07-26T11:46:19.263Z,34.80
2018-07-26T11:47:22.873Z,34.70
2018-07-26T11:48:27.376Z,34.80
2018-07-26T11:49:30.917Z,34.80
2018-07-26T11:50:34.706Z,34.80
2018-07-26T11:51:38.283Z,34.80
2018-07-26T11:52:41.878Z,34.90
2018-07-26T11:53:45.334Z,34.90
2018-07-26T11:54:49.078Z,35.00
2018-07-26T11:55:53.183Z,34.90
2018-07-26T11:56:56.843Z,34.90
2018-07-26T11:58:00.410Z,34.90
2018-07-26T11:59:04.166Z,34.80
2018-07-26T12:00:08.672Z,34.80
2018-07-26T12:01:12.320Z,34.80
2018-07-26T12:02:16.215Z,34.80
2018-07-26T12:03:19.672Z,34.80
2018-07-26T12:04:23.264Z,34.70
2018-07-26T12:05:26.721Z,34.60
2018-07-26T12:06:30.263Z,34.60
2018-07-26T12:07:33.723Z,34.60
2018-07-26T12:08:37.270Z,34.50
2018-07-26T12:09:41.156Z,34.50
2018-07-26T12:10:44.819Z,34.40
2018-07-26T12:11:48.367Z,34.50
2018-07-26T12:12:51.890Z,34.40
2018-07-26T12:13:55.339Z,34.50
2018-07-26T12:14:58.977Z,34.50
2018-07-26T12:16:02.904Z,34.50
2018-07-26T12:17:06.462Z,34.60
2018-07-26T12:18:10.354Z,34.60
2018-07-26T12:19:13.880Z,34.60
2018-07-26T12:20:17.457Z,34.70
2018-07-26T12:21:21.069Z,34.70
2018-07-26T12:22:24.564Z,34.70
2018-07-26T12:23:28.064Z,34.80
2018-07-26T12:24:32.385Z,34.80
2018-07-26T12:25:36.202Z,34.70
2018-07-26T12:26:39.904Z,34.80
2018-07-26T12:27:43.616Z,34.80
2018-07-26T12:28:47.083Z,34.90
2018-07-26T12:29:50.615Z,34.90
2018-07-26T12:31:57.412Z,34.90
2018-07-26T12:33:00.996Z,35.00
2018-07-26T12:34:04.465Z,35.00
2018-07-26T12:35:08.104Z,35.00
2018-07-26T12:36:12.241Z,35.00
2018-07-26T12:37:15.811Z,35.10
2018-07-26T12:38:19.358Z,35.10
2018-07-26T12:39:23.058Z,35.10
2018-07-26T12:40:26.589Z,34.90
2018-07-26T12:41:30.241Z,34.80
2018-07-26T12:42:33.926Z,34.70
2018-07-26T12:43:37.814Z,34.70
2018-07-26T12:44:41.345Z,34.70
2018-07-26T12:45:45.107Z,34.70
2018-07-26T12:46:48.630Z,34.70
2018-07-26T12:47:52.550Z,34.80
2018-07-26T12:48:55.936Z,34.80
2018-07-26T12:49:59.660Z,34.90
2018-07-26T12:51:03.788Z,34.90
2018-07-26T12:52:07.417Z,34.90
2018-07-26T12:53:10.979Z,35.00
2018-07-26T12:54:14.480Z,35.00
2018-07-26T12:55:18.076Z,35.00
2018-07-26T12:56:21.623Z,35.10
2018-07-26T12:57:25.855Z,35.10
2018-07-26T12:58:29.381Z,35.20
2018-07-26T12:59:32.953Z,35.20
2018-07-26T13:00:36.536Z,35.20
2018-07-26T13:01:40.812Z,35.30
2018-07-26T13:02:44.547Z,35.30
2018-07-26T13:03:48.083Z,35.40
2018-07-26T13:04:51.686Z,35.40
2018-07-26T13:05:55.230Z,35.40
2018-07-26T13:06:58.765Z,35.40
2018-07-26T13:09:07.892Z,35.50
2018-07-26T13:10:11.644Z,35.50
2018-07-26T13:11:15.216Z,35.50
2018-07-26T13:12:19.230Z,35.50
2018-07-26T13:13:23.070Z,35.50
2018-07-26T13:14:26.880Z,35.40
2018-07-26T13:15:30.336Z,35.30
2018-07-26T13:17:37.087Z,35.20
2018-07-26T13:18:40.596Z,35.20
2018-07-26T13:19:44.125Z,35.20
2018-07-26T13:20:47.789Z,35.20
2018-07-26T13:21:51.327Z,35.20
2018-07-26T13:22:54.936Z,35.20
2018-07-26T13:25:02.218Z,35.10
2018-07-26T13:26:06.458Z,35.10
2018-07-26T13:27:10.103Z,35.10
2018-07-26T13:28:13.834Z,35.10
2018-07-26T13:29:17.383Z,35.20
2018-07-26T13:30:21.002Z,35.20
2018-07-26T13:31:24.548Z,35.40
2018-07-26T13:32:28.402Z,35.40
2018-07-26T13:33:31.989Z,35.40
2018-07-26T13:34:35.559Z,35.50
2018-07-26T13:35:39.648Z,35.50
2018-07-26T13:36:43.899Z,35.50
2018-07-26T13:37:47.394Z,35.50
2018-07-26T13:38:50.985Z,35.50
2018-07-26T13:39:54.684Z,35.40
2018-07-26T13:40:58.355Z,35.30
2018-07-26T13:42:01.825Z,35.20
2018-07-26T13:43:05.539Z,35.20
2018-07-26T13:44:09.944Z,35.20
2018-07-26T13:45:13.596Z,35.20
2018-07-26T13:46:17.188Z,35.10
2018-07-26T13:47:20.720Z,35.10
2018-07-26T13:48:24.410Z,35.10
2018-07-26T13:49:28.815Z,35.20
2018-07-26T13:50:33.063Z,35.20
2018-07-26T13:51:36.708Z,35.30
2018-07-26T13:52:40.792Z,35.40
2018-07-26T13:53:44.345Z,35.40
2018-07-26T13:54:47.916Z,35.40
2018-07-26T13:55:51.408Z,35.40
2018-07-26T13:56:54.935Z,35.40
2018-07-26T13:57:58.920Z,35.40
2018-07-26T13:59:02.565Z,35.50
2018-07-26T14:00:07.512Z,35.40
2018-07-26T14:01:11.712Z,35.40